createdAt,value
2018-08-31T00:02:25.149Z,15.50
2018-08-31T00:05:04.948Z,15.60
2018-08-31T00:07:45.453Z,15.60
2018-08-31T00:10:27.055Z,15.50
2018-08-31T00:12:55.395Z,15.50
2018-08-31T00:15:23.780Z,15.40
2018-08-31T00:17:52.201Z,15.40
2018-08-31T00:20:20.569Z,15.20
2018-08-31T00:22:48.938Z,15.10
2018-08-31T00:26:29.807Z,15.00
2018-08-31T00:29:46.089Z,15.10
2018-08-31T00:32:25.785Z,15.20
2018-08-31T00:35:04.208Z,15.20
2018-08-31T00:38:00.944Z,15.20
2018-08-31T00:40:40.477Z,15.10
2018-08-31T00:43:54.487Z,15.20
2018-08-31T00:46:22.934Z,15.20
2018-08-31T00:48:51.321Z,15.10
2018-08-31T00:51:19.727Z,15.10
2018-08-31T00:53:48.169Z,15.10
2018-08-31T00:56:16.544Z,15.30
2018-08-31T00:58:44.884Z,15.00
2018-08-31T01:01:13.225Z,14.90
2018-08-31T01:03:41.619Z,14.90
2018-08-31T01:06:10.635Z,14.80
2018-08-31T01:08:39.040Z,14.80
2018-08-31T01:11:07.857Z,15.00
2018-08-31T01:13:37.188Z,15.10
2018-08-31T01:16:05.671Z,15.00
2018-08-31T01:18:34.015Z,15.10
2018-08-31T01:21:02.372Z,14.80
2018-08-31T01:23:30.728Z,14.50
2018-08-31T01:25:59.099Z,14.30
2018-08-31T01:28:27.425Z,14.00
2018-08-31T01:30:55.860Z,13.90
2018-08-31T01:33:24.256Z,13.90
2018-08-31T01:35:52.683Z,14.10
2018-08-31T01:38:21.102Z,14.20
2018-08-31T01:40:49.467Z,14.40
2018-08-31T01:43:17.852Z,14.30
2018-08-31T01:45:46.243Z,14.30
2018-08-31T01:48:14.677Z,14.20
2018-08-31T01:50:48.369Z,13.90
2018-08-31T01:53:16.717Z,14.10
2018-08-31T01:55:45.064Z,14.30
2018-08-31T01:58:13.428Z,14.10
2018-08-31T02:00:41.757Z,14.30
2018-08-31T02:03:10.196Z,14.20
2018-08-31T02:05:38.588Z,14.20
2018-08-31T02:08:07.738Z,14.30
2018-08-31T02:10:36.512Z,14.30
2018-08-31T02:13:05.963Z,14.30
2018-08-31T02:15:34.392Z,14.20
2018-08-31T02:18:02.948Z,14.20
2018-08-31T02:20:31.349Z,14.10
2018-08-31T02:22:59.777Z,14.10
2018-08-31T02:25:28.180Z,14.30
2018-08-31T02:27:56.675Z,14.40
2018-08-31T02:30:25.155Z,14.40
2018-08-31T02:32:53.979Z,14.20
2018-08-31T02:35:22.990Z,14.00
2018-08-31T02:37:52.007Z,14.10
2018-08-31T02:40:21.052Z,14.20
2018-08-31T02:42:50.153Z,14.20
2018-08-31T02:45:19.129Z,14.20
2018-08-31T02:47:48.533Z,14.30
2018-08-31T02:50:17.661Z,14.40
2018-08-31T02:52:46.637Z,14.10
2018-08-31T02:55:15.782Z,14.30
2018-08-31T02:57:44.828Z,14.40
2018-08-31T03:00:13.757Z,14.20
2018-08-31T03:02:42.882Z,14.20
2018-08-31T03:05:12.001Z,13.90
2018-08-31T03:07:41.176Z,13.80
2018-08-31T03:10:10.225Z,14.00
2018-08-31T03:12:39.306Z,14.00
2018-08-31T03:15:08.213Z,13.90
2018-08-31T03:17:37.235Z,14.10
2018-08-31T03:20:06.532Z,14.10
2018-08-31T03:22:35.675Z,14.10
2018-08-31T03:25:04.833Z,14.30
2018-08-31T03:27:33.997Z,14.30
2018-08-31T03:30:02.533Z,14.50
2018-08-31T03:32:30.989Z,14.60
2018-08-31T03:35:00.089Z,14.60
2018-08-31T03:37:29.118Z,14.30
2018-08-31T03:39:58.176Z,14.50
2018-08-31T03:42:27.177Z,14.30
2018-08-31T03:44:56.362Z,14.20
2018-08-31T03:47:25.043Z,14.10
2018-08-31T03:49:53.441Z,14.20
2018-08-31T03:52:21.843Z,14.20
2018-08-31T03:54:50.304Z,14.20
2018-08-31T03:57:18.791Z,14.30
2018-08-31T03:59:47.221Z,14.30
2018-08-31T04:02:15.615Z,14.00
2018-08-31T04:04:44.041Z,13.80
2018-08-31T04:07:12.678Z,13.90
2018-08-31T04:09:41.057Z,13.90
2018-08-31T04:12:10.098Z,13.90
2018-08-31T04:14:38.479Z,13.80
2018-08-31T04:17:06.891Z,14.10
2018-08-31T04:19:35.315Z,14.20
2018-08-31T04:22:03.667Z,14.20
2018-08-31T04:24:32.053Z,14.20
2018-08-31T04:27:00.420Z,14.20
2018-08-31T04:29:28.832Z,14.10
2018-08-31T04:31:57.208Z,13.90
2018-08-31T04:34:25.639Z,13.80
2018-08-31T04:36:53.978Z,13.60
2018-08-31T04:39:22.323Z,13.60
2018-08-31T04:41:50.697Z,13.50
2018-08-31T04:44:19.139Z,13.50
2018-08-31T04:46:47.563Z,13.70
2018-08-31T04:49:16.053Z,13.90
2018-08-31T04:51:44.430Z,13.80
2018-08-31T04:54:12.918Z,13.70
2018-08-31T04:56:41.333Z,13.70
2018-08-31T04:59:09.727Z,14.00
2018-08-31T05:01:38.099Z,14.20
2018-08-31T05:04:07.179Z,14.40
2018-08-31T05:06:35.868Z,14.20
2018-08-31T05:09:06.137Z,14.10
2018-08-31T05:11:34.557Z,14.10
2018-08-31T05:14:02.996Z,14.30
2018-08-31T05:16:31.371Z,14.30
2018-08-31T05:18:59.715Z,14.20
2018-08-31T05:21:28.303Z,14.10
2018-08-31T05:23:56.698Z,14.20
2018-08-31T05:26:25.688Z,14.20
2018-08-31T05:28:54.338Z,14.40
2018-08-31T05:31:22.758Z,14.20
2018-08-31T05:33:51.109Z,14.20
2018-08-31T05:36:19.475Z,14.20
2018-08-31T05:38:47.876Z,14.00
2018-08-31T05:41:16.229Z,13.60
2018-08-31T05:43:44.631Z,13.70
2018-08-31T05:46:13.157Z,13.50
2018-08-31T05:48:41.701Z,13.20
2018-08-31T05:51:10.657Z,13.00
2018-08-31T05:53:39.427Z,13.20
2018-08-31T05:56:07.829Z,13.20
2018-08-31T05:58:36.366Z,13.20
2018-08-31T06:01:04.716Z,13.30
2018-08-31T06:03:33.148Z,13.00
2018-08-31T06:06:01.544Z,13.30
2018-08-31T06:08:29.890Z,13.60
2018-08-31T06:10:59.678Z,13.50
2018-08-31T06:13:28.083Z,13.60
2018-08-31T06:15:56.519Z,13.70
2018-08-31T06:18:24.912Z,13.80
2018-08-31T06:20:53.281Z,13.80
2018-08-31T06:23:21.649Z,13.90
2018-08-31T06:25:50.350Z,13.80
2018-08-31T06:28:18.696Z,13.80
2018-08-31T06:30:47.068Z,13.80
2018-08-31T06:33:15.405Z,13.60
2018-08-31T06:35:49.595Z,13.50
2018-08-31T06:38:18.047Z,13.30
2018-08-31T06:40:46.474Z,13.20
2018-08-31T06:43:14.811Z,13.40
2018-08-31T06:45:43.149Z,13.90
2018-08-31T06:48:11.701Z,14.10
2018-08-31T06:50:40.131Z,14.40
2018-08-31T06:53:08.653Z,14.40
2018-08-31T06:55:37.205Z,14.50
2018-08-31T06:58:05.658Z,14.60
2018-08-31T07:00:34.088Z,14.60
2018-08-31T07:03:03.344Z,14.70
2018-08-31T07:05:31.763Z,14.90
2018-08-31T07:08:00.257Z,14.90
2018-08-31T07:10:28.743Z,15.00
2018-08-31T07:12:57.145Z,14.90
2018-08-31T07:15:25.594Z,14.90
2018-08-31T07:17:53.984Z,15.00
2018-08-31T07:20:22.470Z,14.70
2018-08-31T07:22:51.036Z,14.60
2018-08-31T07:25:19.636Z,14.70
2018-08-31T07:27:48.720Z,14.80
2018-08-31T07:30:17.143Z,15.10
2018-08-31T07:32:45.659Z,15.30
2018-08-31T07:35:14.044Z,15.50
2018-08-31T07:37:42.422Z,15.60
2018-08-31T07:40:10.868Z,15.60
2018-08-31T07:42:39.656Z,15.70
2018-08-31T07:45:08.130Z,15.70
2018-08-31T07:47:36.557Z,15.70
2018-08-31T07:50:05.644Z,15.80
2018-08-31T07:52:34.122Z,15.90
2018-08-31T07:55:02.535Z,16.00
2018-08-31T07:57:30.911Z,16.00
2018-08-31T07:59:59.345Z,16.10
2018-08-31T08:02:28.475Z,16.20
2018-08-31T08:04:56.872Z,16.30
2018-08-31T08:07:25.373Z,16.30
2018-08-31T08:09:53.761Z,16.30
2018-08-31T08:12:22.209Z,16.20
2018-08-31T08:14:50.825Z,16.40
2018-08-31T08:17:19.066Z,16.50
2018-08-31T08:19:47.487Z,16.50
2018-08-31T08:22:15.904Z,16.60
2018-08-31T08:24:44.302Z,16.50
2018-08-31T08:27:12.751Z,16.60
2018-08-31T08:29:41.136Z,16.60
2018-08-31T08:32:09.528Z,16.70
2018-08-31T08:34:37.956Z,16.60
2018-08-31T08:37:06.433Z,16.70
2018-08-31T08:39:34.841Z,16.90
2018-08-31T08:42:03.284Z,17.10
2018-08-31T08:44:31.720Z,17.10
2018-08-31T08:47:00.268Z,17.10
2018-08-31T08:49:28.688Z,17.10
2018-08-31T08:51:57.127Z,17.50
2018-08-31T08:54:25.612Z,17.60
2018-08-31T08:56:54.027Z,17.70
2018-08-31T08:59:22.503Z,18.00
2018-08-31T09:01:50.975Z,18.20
2018-08-31T09:04:19.424Z,18.30
2018-08-31T09:06:47.851Z,18.30
2018-08-31T09:09:16.560Z,18.70
2018-08-31T09:11:44.963Z,18.90
2018-08-31T09:14:13.489Z,18.50
2018-08-31T09:16:41.926Z,18.40
2018-08-31T09:19:10.387Z,18.80
2018-08-31T09:21:38.812Z,18.80
2018-08-31T09:24:07.291Z,18.80
2018-08-31T09:26:36.353Z,18.80
2018-08-31T09:29:04.720Z,18.80
2018-08-31T09:31:33.129Z,19.00
2018-08-31T09:34:01.720Z,19.00
2018-08-31T09:36:30.153Z,19.10
2018-08-31T09:38:58.602Z,19.10
2018-08-31T09:41:27.015Z,19.30
2018-08-31T09:43:55.506Z,19.20
2018-08-31T09:46:23.908Z,19.10
2018-08-31T09:48:53.712Z,18.40
2018-08-31T09:51:22.064Z,18.60
2018-08-31T09:53:50.448Z,18.90
2018-08-31T09:56:18.921Z,19.30
2018-08-31T09:58:47.377Z,19.30
2018-08-31T10:01:21.150Z,19.00
2018-08-31T10:03:49.505Z,18.80
2018-08-31T10:06:18.349Z,18.40
2018-08-31T10:08:46.774Z,18.30
2018-08-31T10:11:15.222Z,18.30
2018-08-31T10:13:43.593Z,18.50
2018-08-31T10:16:11.978Z,18.50
2018-08-31T10:18:40.381Z,18.60
2018-08-31T10:21:09.579Z,18.80
2018-08-31T10:23:37.967Z,19.00
2018-08-31T10:26:06.400Z,18.90
2018-08-31T10:28:34.944Z,19.10
2018-08-31T10:31:03.657Z,19.30
2018-08-31T10:33:32.051Z,19.00
2018-08-31T10:36:00.470Z,19.00
2018-08-31T10:38:28.881Z,19.10
2018-08-31T10:40:57.279Z,19.00
2018-08-31T10:43:25.812Z,19.00
2018-08-31T10:45:54.545Z,18.80
2018-08-31T10:48:22.985Z,18.70
2018-08-31T10:50:51.373Z,18.60
2018-08-31T10:53:19.762Z,19.10
2018-08-31T10:55:48.107Z,19.20
2018-08-31T10:58:16.524Z,19.20
2018-08-31T11:00:44.904Z,19.40
2018-08-31T11:03:13.323Z,19.30
2018-08-31T11:05:41.738Z,19.50
2018-08-31T11:08:10.189Z,19.50
2018-08-31T11:10:38.755Z,19.40
2018-08-31T11:13:07.199Z,19.60
2018-08-31T11:15:35.585Z,19.70
2018-08-31T11:18:04.049Z,19.90
2018-08-31T11:20:32.541Z,20.20
2018-08-31T11:23:01.057Z,20.20
2018-08-31T11:25:29.471Z,20.10
2018-08-31T11:27:58.125Z,20.40
2018-08-31T11:30:26.434Z,20.80
2018-08-31T11:32:54.812Z,20.90
2018-08-31T11:35:23.257Z,21.00
2018-08-31T11:37:51.679Z,21.00
2018-08-31T11:40:20.205Z,21.00
2018-08-31T11:42:48.704Z,21.40
2018-08-31T11:45:17.099Z,21.50
2018-08-31T11:47:45.636Z,21.80
2018-08-31T11:50:14.080Z,22.20
2018-08-31T11:52:42.557Z,22.20
2018-08-31T11:55:11.096Z,22.00
2018-08-31T11:57:39.495Z,21.30
2018-08-31T12:00:07.982Z,21.10
2018-08-31T12:02:36.497Z,20.50
2018-08-31T12:05:04.958Z,20.10
2018-08-31T12:07:33.362Z,20.20
2018-08-31T12:10:01.743Z,20.30
2018-08-31T12:12:30.304Z,20.20
2018-08-31T12:14:58.768Z,20.20
2018-08-31T12:17:27.104Z,19.90
2018-08-31T12:19:55.461Z,20.40
2018-08-31T12:22:23.928Z,20.60
2018-08-31T12:24:52.371Z,21.20
2018-08-31T12:27:20.800Z,21.50
2018-08-31T12:29:49.232Z,21.40
2018-08-31T12:32:17.730Z,21.20
2018-08-31T12:34:46.180Z,20.80
2018-08-31T12:37:14.629Z,21.10
2018-08-31T12:39:43.036Z,20.90
2018-08-31T12:42:11.917Z,20.70
2018-08-31T12:44:40.920Z,20.60
2018-08-31T12:47:09.665Z,20.50
2018-08-31T12:49:38.536Z,20.60
2018-08-31T12:52:07.106Z,20.60
2018-08-31T12:54:36.011Z,20.60
2018-08-31T12:57:04.878Z,20.90
2018-08-31T12:59:34.980Z,20.80
2018-08-31T13:02:03.822Z,20.90
2018-08-31T13:04:32.729Z,20.80
2018-08-31T13:07:01.839Z,21.00
2018-08-31T13:09:30.867Z,20.60
2018-08-31T13:11:59.819Z,20.50
2018-08-31T13:14:28.883Z,20.80
2018-08-31T13:16:57.762Z,20.90
2018-08-31T13:19:26.609Z,20.80
2018-08-31T13:21:55.435Z,20.90
2018-08-31T13:24:24.202Z,20.90
2018-08-31T13:26:52.928Z,21.10
2018-08-31T13:29:23.097Z,20.50
2018-08-31T13:31:51.831Z,20.10
2018-08-31T13:34:20.581Z,20.30
2018-08-31T13:36:49.293Z,20.90
2018-08-31T13:39:18.195Z,21.50
2018-08-31T13:41:47.515Z,21.80
2018-08-31T13:44:16.000Z,21.70
2018-08-31T13:46:45.612Z,21.60
2018-08-31T13:49:14.632Z,21.60
2018-08-31T13:51:43.318Z,21.30
2018-08-31T13:54:13.461Z,21.60
2018-08-31T13:56:42.144Z,21.40
2018-08-31T13:59:10.766Z,21.20
2018-08-31T14:01:39.305Z,21.20
2018-08-31T14:04:07.921Z,21.00
2018-08-31T14:06:36.495Z,21.00
2018-08-31T14:09:06.465Z,20.80
2018-08-31T14:11:34.932Z,20.90
2018-08-31T14:14:03.516Z,21.10
2018-08-31T14:16:35.387Z,21.30
2018-08-31T14:19:05.185Z,21.50
2018-08-31T14:21:33.908Z,21.50
2018-08-31T14:24:02.495Z,21.70
2018-08-31T14:26:30.901Z,21.30
2018-08-31T14:28:59.379Z,21.40
2018-08-31T14:31:27.900Z,21.60
2018-08-31T14:33:56.493Z,21.60
2018-08-31T14:36:25.789Z,21.50
2018-08-31T14:38:54.273Z,21.50
2018-08-31T14:41:22.818Z,21.50
2018-08-31T14:43:51.706Z,21.60
2018-08-31T14:46:20.260Z,21.50
2018-08-31T14:48:48.743Z,21.50
2018-08-31T14:51:17.337Z,21.50
2018-08-31T14:53:45.972Z,21.20
2018-08-31T14:56:14.476Z,21.10
2018-08-31T14:58:44.119Z,20.90
2018-08-31T15:01:12.931Z,20.90
2018-08-31T15:03:41.433Z,20.90
2018-08-31T15:06:09.936Z,20.80
2018-08-31T15:08:38.598Z,20.90
2018-08-31T15:11:07.206Z,20.40
2018-08-31T15:13:36.556Z,20.30
2018-08-31T15:16:05.286Z,20.40
2018-08-31T15:18:33.872Z,20.30
2018-08-31T15:21:02.358Z,20.30
2018-08-31T15:23:30.830Z,20.30
2018-08-31T15:25:59.242Z,20.30
2018-08-31T15:28:27.682Z,20.20
2018-08-31T15:30:56.068Z,20.00
2018-08-31T15:33:24.527Z,20.10
2018-08-31T15:35:53.033Z,20.30
2018-08-31T15:38:21.532Z,20.40
2018-08-31T15:40:49.961Z,19.90
2018-08-31T15:43:18.596Z,19.80
2018-08-31T15:45:47.223Z,19.60
2018-08-31T15:48:15.668Z,19.40
2018-08-31T15:50:44.065Z,19.60
2018-08-31T15:53:12.753Z,19.50
2018-08-31T15:55:41.215Z,19.80
2018-08-31T15:58:09.710Z,19.80
2018-08-31T16:00:38.147Z,19.40
2018-08-31T16:03:06.901Z,19.60
2018-08-31T16:05:35.317Z,19.90
2018-08-31T16:08:03.782Z,19.50
2018-08-31T16:10:32.318Z,19.20
2018-08-31T16:13:00.856Z,19.00
2018-08-31T16:15:29.447Z,19.00
2018-08-31T16:17:57.825Z,18.90
2018-08-31T16:20:26.323Z,18.80
2018-08-31T16:22:54.868Z,18.90
2018-08-31T16:25:23.282Z,19.30
2018-08-31T16:27:51.970Z,19.50
2018-08-31T16:30:20.464Z,19.50
2018-08-31T16:32:48.970Z,19.20
2018-08-31T16:35:17.341Z,19.00
2018-08-31T16:37:45.785Z,18.90
2018-08-31T16:40:14.338Z,18.90
2018-08-31T16:42:43.090Z,18.70
2018-08-31T16:45:11.643Z,18.90
2018-08-31T16:47:40.171Z,19.00
2018-08-31T16:50:08.613Z,19.00
2018-08-31T16:52:37.136Z,19.00
2018-08-31T16:55:05.764Z,19.10
2018-08-31T16:57:34.316Z,19.00
2018-08-31T17:00:03.023Z,18.80
2018-08-31T17:02:31.423Z,19.10
2018-08-31T17:04:59.901Z,18.90
2018-08-31T17:07:28.322Z,19.00
2018-08-31T17:09:57.034Z,18.90
2018-08-31T17:12:25.443Z,18.90
2018-08-31T17:14:54.564Z,19.20
2018-08-31T17:17:23.714Z,18.90
2018-08-31T17:19:52.917Z,18.60
2018-08-31T17:22:21.501Z,18.50
2018-08-31T17:24:49.981Z,18.50
2018-08-31T17:27:26.355Z,18.50
2018-08-31T17:29:55.719Z,18.40
2018-08-31T17:32:29.688Z,18.30
2018-08-31T17:35:03.517Z,18.50
2018-08-31T17:37:33.741Z,18.60
2018-08-31T17:40:02.193Z,18.60
2018-08-31T17:42:33.083Z,18.40
2018-08-31T17:45:01.644Z,18.40
2018-08-31T17:47:30.012Z,18.30
2018-08-31T17:49:58.447Z,18.30
2018-08-31T17:52:29.680Z,18.30
2018-08-31T17:54:58.088Z,18.30
2018-08-31T17:57:26.468Z,18.30
2018-08-31T17:59:54.916Z,18.40
2018-08-31T18:02:23.337Z,18.40
2018-08-31T18:04:51.740Z,18.40
2018-08-31T18:07:20.113Z,18.40
2018-08-31T18:09:48.634Z,18.50
2018-08-31T18:12:16.994Z,18.40
2018-08-31T18:14:45.433Z,18.30
2018-08-31T18:17:13.909Z,18.30
2018-08-31T18:19:42.397Z,18.20
2018-08-31T18:22:10.878Z,18.20
2018-08-31T18:24:39.279Z,18.20
2018-08-31T18:27:07.720Z,18.40
2018-08-31T18:29:37.572Z,18.40
2018-08-31T18:32:06.015Z,18.30
2018-08-31T18:34:34.619Z,18.20
2018-08-31T18:37:03.105Z,18.10
2018-08-31T18:39:31.528Z,18.20
2018-08-31T18:41:59.937Z,18.10
2018-08-31T18:44:28.327Z,18.10
2018-08-31T18:46:56.853Z,18.00
2018-08-31T18:49:25.323Z,18.00
2018-08-31T18:51:53.776Z,17.90
2018-08-31T18:54:22.205Z,17.90
2018-08-31T18:56:50.550Z,17.90
2018-08-31T18:59:18.975Z,17.90
2018-08-31T19:01:47.424Z,17.80
2018-08-31T19:04:15.821Z,17.80
2018-08-31T19:06:44.208Z,17.60
2018-08-31T19:09:12.612Z,17.50
2018-08-31T19:11:41.050Z,17.60
2018-08-31T19:14:09.524Z,17.50
2018-08-31T19:16:37.903Z,17.50
2018-08-31T19:19:06.402Z,17.40
2018-08-31T19:21:34.832Z,17.40
2018-08-31T19:24:03.257Z,17.40
2018-08-31T19:26:31.674Z,17.40
2018-08-31T19:29:00.089Z,17.30
2018-08-31T19:31:28.611Z,17.30
2018-08-31T19:33:56.968Z,17.30
2018-08-31T19:36:26.577Z,17.30
2018-08-31T19:38:55.131Z,17.30
2018-08-31T19:41:23.707Z,17.30
2018-08-31T19:43:52.199Z,17.30
2018-08-31T19:46:20.625Z,17.20
2018-08-31T19:48:49.184Z,17.20
2018-08-31T19:51:17.612Z,17.20
2018-08-31T19:53:46.116Z,17.10
2018-08-31T19:56:14.422Z,17.10
2018-08-31T19:58:43.324Z,17.10
2018-08-31T20:01:11.819Z,17.00
2018-08-31T20:03:40.293Z,16.90
2018-08-31T20:06:08.721Z,16.90
2018-08-31T20:08:37.144Z,16.90
2018-08-31T20:11:05.576Z,16.90
2018-08-31T20:13:34.040Z,16.80
2018-08-31T20:16:02.448Z,16.80
2018-08-31T20:18:30.859Z,16.80
2018-08-31T20:20:59.231Z,16.80
2018-08-31T20:23:27.657Z,16.60
2018-08-31T20:25:56.068Z,16.50
2018-08-31T20:28:28.492Z,16.50
2018-08-31T20:30:56.937Z,16.50
2018-08-31T20:33:25.410Z,16.50
2018-08-31T20:35:53.783Z,16.50
2018-08-31T20:38:22.181Z,16.30
2018-08-31T20:40:50.575Z,16.20
2018-08-31T20:43:18.982Z,16.40
2018-08-31T20:45:47.289Z,16.30
2018-08-31T20:48:15.655Z,16.40
2018-08-31T20:50:44.024Z,16.40
2018-08-31T20:53:12.480Z,16.20
2018-08-31T20:55:40.845Z,16.40
2018-08-31T20:58:09.801Z,16.40
2018-08-31T21:00:38.167Z,16.40
2018-08-31T21:03:06.888Z,16.40
2018-08-31T21:05:35.421Z,16.40
2018-08-31T21:08:03.823Z,16.40
2018-08-31T21:10:32.233Z,16.40
2018-08-31T21:13:00.643Z,16.30
2018-08-31T21:15:29.113Z,16.30
2018-08-31T21:17:57.485Z,16.20
2018-08-31T21:20:25.865Z,16.20
2018-08-31T21:22:54.287Z,16.20
2018-08-31T21:25:22.775Z,16.10
2018-08-31T21:27:51.203Z,16.10
2018-08-31T21:30:19.535Z,16.00
2018-08-31T21:32:47.918Z,15.90
2018-08-31T21:35:16.316Z,15.90
2018-08-31T21:37:44.731Z,15.80
2018-08-31T21:40:13.187Z,15.80
2018-08-31T21:42:41.545Z,15.80
2018-08-31T21:45:10.120Z,15.80
2018-08-31T21:47:38.494Z,15.70
2018-08-31T21:50:07.028Z,15.60
2018-08-31T21:52:35.489Z,15.60
2018-08-31T21:55:03.994Z,15.50
2018-08-31T21:57:32.441Z,15.50
2018-08-31T22:00:00.884Z,15.40
2018-08-31T22:02:30.274Z,15.40
2018-08-31T22:04:58.686Z,15.40
2018-08-31T22:07:27.098Z,15.30
2018-08-31T22:09:55.464Z,15.20
2018-08-31T22:12:23.923Z,15.20
2018-08-31T22:14:52.502Z,15.20
2018-08-31T22:17:21.297Z,15.20
2018-08-31T22:19:49.812Z,15.30
2018-08-31T22:22:18.256Z,15.20
2018-08-31T22:24:46.736Z,15.10
2018-08-31T22:27:15.370Z,15.00
2018-08-31T22:29:43.892Z,15.00
2018-08-31T22:32:12.325Z,15.00
2018-08-31T22:34:40.819Z,15.00
2018-08-31T22:37:09.273Z,14.90
2018-08-31T22:39:37.651Z,15.00
2018-08-31T22:42:06.122Z,14.90
2018-08-31T22:44:36.095Z,14.90
2018-08-31T22:47:05.110Z,14.80
2018-08-31T22:49:33.616Z,14.60
2018-08-31T22:52:02.062Z,14.60
2018-08-31T22:54:30.759Z,14.50
2018-08-31T22:56:59.459Z,14.60
2018-08-31T22:59:27.899Z,14.60
2018-08-31T23:01:56.615Z,14.50
2018-08-31T23:04:25.077Z,14.50
2018-08-31T23:06:53.771Z,14.40
2018-08-31T23:09:22.588Z,14.50
2018-08-31T23:11:50.961Z,14.50
2018-08-31T23:14:20.140Z,14.50
2018-08-31T23:16:48.650Z,14.50
2018-08-31T23:19:17.541Z,14.40
2018-08-31T23:21:46.047Z,14.40
2018-08-31T23:24:14.805Z,14.40
2018-08-31T23:26:43.208Z,14.40
2018-08-31T23:29:11.887Z,14.30
2018-08-31T23:31:40.329Z,14.40
2018-08-31T23:34:09.006Z,14.30
2018-08-31T23:36:40.491Z,14.30
2018-08-31T23:39:09.469Z,14.30
2018-08-31T23:41:37.907Z,14.30
2018-08-31T23:44:06.684Z,14.30
2018-08-31T23:46:35.082Z,14.20
2018-08-31T23:49:03.454Z,14.20
2018-08-31T23:51:31.848Z,14.20
2018-08-31T23:54:00.296Z,14.30
2018-08-31T23:56:28.720Z,14.20
2018-08-31T23:58:57.967Z,14.20
